createdAt,value
2017-09-10T00:02:26.974Z,8.88
2017-09-10T00:04:53.499Z,8.80
2017-09-10T00:07:20.053Z,9.32
2017-09-10T00:09:46.382Z,9.75
2017-09-10T00:12:12.628Z,8.90
2017-09-10T00:14:39.144Z,12.32
2017-09-10T00:17:05.382Z,15.30
2017-09-10T00:19:31.723Z,12.10
2017-09-10T00:21:58.160Z,11.68
2017-09-10T00:24:24.568Z,12.50
2017-09-10T00:26:50.897Z,23.23
2017-09-10T00:29:17.115Z,9.02
2017-09-10T00:31:43.470Z,9.60
2017-09-10T00:34:10.126Z,9.63
2017-09-10T00:36:36.550Z,8.27
2017-09-10T00:39:03.180Z,13.05
2017-09-10T00:41:29.424Z,9.63
2017-09-10T00:43:55.762Z,9.98
2017-09-10T00:46:22.416Z,9.65
2017-09-10T00:48:48.644Z,8.35
2017-09-10T00:51:15.469Z,8.98
2017-09-10T00:53:43.188Z,9.65
2017-09-10T00:56:09.558Z,11.60
2017-09-10T00:58:35.946Z,8.80
2017-09-10T01:01:02.225Z,7.57
2017-09-10T01:03:28.548Z,10.18
2017-09-10T01:05:54.992Z,17.73
2017-09-10T01:08:21.928Z,11.43
2017-09-10T01:10:48.164Z,7.53
2017-09-10T01:13:14.385Z,15.48
2017-09-10T01:15:40.739Z,11.23
2017-09-10T01:18:07.667Z,15.38
2017-09-10T01:20:34.101Z,10.88
2017-09-10T01:23:00.443Z,15.70
2017-09-10T01:25:26.782Z,9.25
2017-09-10T01:27:53.629Z,10.63
2017-09-10T01:30:19.949Z,7.47
2017-09-10T01:32:46.278Z,40.38
2017-09-10T01:35:12.619Z,42.83
2017-09-10T01:37:39.036Z,11.80
2017-09-10T01:40:06.621Z,8.60
2017-09-10T01:42:32.930Z,12.85
2017-09-10T01:44:59.276Z,8.30
2017-09-10T01:47:25.595Z,10.32
2017-09-10T01:49:52.540Z,10.88
2017-09-10T01:52:18.890Z,11.80
2017-09-10T01:54:45.716Z,9.38
2017-09-10T01:57:12.053Z,15.20
2017-09-10T01:59:38.820Z,12.85
2017-09-10T02:02:05.142Z,15.88
2017-09-10T02:04:31.482Z,17.10
2017-09-10T02:06:57.908Z,14.07
2017-09-10T02:09:24.234Z,16.27
2017-09-10T02:11:50.552Z,11.20
2017-09-10T02:14:16.794Z,12.27
2017-09-10T02:16:43.333Z,17.45
2017-09-10T02:19:09.664Z,12.55
2017-09-10T02:21:35.896Z,12.65
2017-09-10T02:24:02.223Z,13.90
2017-09-10T02:26:28.549Z,15.85
2017-09-10T02:28:55.616Z,22.60
2017-09-10T02:31:21.929Z,13.88
2017-09-10T02:33:48.472Z,13.60
2017-09-10T02:36:15.524Z,12.13
2017-09-10T02:38:41.972Z,11.98
2017-09-10T02:41:08.405Z,9.35
2017-09-10T02:43:35.534Z,11.73
2017-09-10T02:46:01.891Z,11.38
2017-09-10T02:48:28.813Z,10.80
2017-09-10T02:50:55.880Z,10.52
2017-09-10T02:53:22.196Z,10.23
2017-09-10T02:55:48.642Z,16.52
2017-09-10T02:58:15.174Z,9.93
2017-09-10T03:00:41.816Z,11.82
2017-09-10T03:03:08.159Z,8.82
2017-09-10T03:05:34.475Z,11.20
2017-09-10T03:08:00.713Z,11.70
2017-09-10T03:10:27.766Z,10.50
2017-09-10T03:12:54.306Z,13.45
2017-09-10T03:15:20.723Z,12.85
2017-09-10T03:17:47.068Z,17.95
2017-09-10T03:20:13.502Z,13.70
2017-09-10T03:22:39.815Z,15.05
2017-09-10T03:25:06.161Z,12.70
2017-09-10T03:27:32.597Z,11.60
2017-09-10T03:29:58.937Z,9.55
2017-09-10T03:32:25.565Z,8.80
2017-09-10T03:34:51.897Z,9.90
2017-09-10T03:37:18.234Z,9.38
2017-09-10T03:39:44.463Z,10.98
2017-09-10T03:42:10.798Z,8.32
2017-09-10T03:44:37.222Z,11.25
2017-09-10T03:47:03.660Z,21.73
2017-09-10T03:49:29.993Z,9.07
2017-09-10T03:51:57.338Z,12.68
2017-09-10T03:54:23.675Z,9.00
2017-09-10T03:56:50.003Z,16.25
2017-09-10T03:59:16.335Z,18.65
2017-09-10T04:01:42.875Z,25.27
2017-09-10T04:04:09.205Z,19.87
2017-09-10T04:06:36.043Z,17.30
2017-09-10T04:09:02.484Z,38.45
2017-09-10T04:11:29.345Z,51.40
2017-09-10T04:13:56.089Z,56.20
2017-09-10T04:16:22.517Z,14.98
2017-09-10T04:18:48.959Z,18.25
2017-09-10T04:21:15.395Z,13.93
2017-09-10T04:23:41.812Z,10.95
2017-09-10T04:26:08.159Z,14.23
2017-09-10T04:28:35.309Z,13.00
2017-09-10T04:31:01.646Z,12.13
2017-09-10T04:33:28.069Z,9.73
2017-09-10T04:35:55.541Z,12.18
2017-09-10T04:38:21.891Z,10.77
2017-09-10T04:40:48.194Z,42.28
2017-09-10T04:43:14.725Z,24.85
2017-09-10T04:45:41.055Z,8.45
2017-09-10T04:48:07.390Z,9.05
2017-09-10T04:50:34.654Z,8.73
2017-09-10T04:53:00.866Z,9.43
2017-09-10T04:55:27.203Z,13.68
2017-09-10T04:57:53.542Z,10.90
2017-09-10T05:00:19.946Z,9.60
2017-09-10T05:02:46.178Z,8.38
2017-09-10T05:05:12.731Z,9.50
2017-09-10T05:07:39.174Z,9.52
2017-09-10T05:10:05.607Z,15.02
2017-09-10T05:12:32.762Z,16.85
2017-09-10T05:14:59.306Z,10.35
2017-09-10T05:17:25.737Z,7.30
2017-09-10T05:19:52.270Z,8.43
2017-09-10T05:22:18.930Z,7.15
2017-09-10T05:24:45.659Z,5.60
2017-09-10T05:27:11.969Z,8.57
2017-09-10T05:29:38.322Z,8.20
2017-09-10T05:32:04.959Z,5.57
2017-09-10T05:34:31.290Z,6.85
2017-09-10T05:36:57.828Z,5.55
2017-09-10T05:39:24.144Z,5.90
2017-09-10T05:41:50.597Z,5.32
2017-09-10T05:44:16.929Z,3.95
2017-09-10T05:46:43.257Z,6.40
2017-09-10T05:49:09.998Z,6.20
2017-09-10T05:51:36.218Z,8.80
2017-09-10T05:54:02.765Z,7.50
2017-09-10T05:56:29.086Z,7.68
2017-09-10T05:58:55.424Z,8.20
2017-09-10T06:01:21.888Z,12.70
2017-09-10T06:03:48.809Z,8.70
2017-09-10T06:06:16.055Z,5.90
2017-09-10T06:08:42.497Z,6.00
2017-09-10T06:11:09.438Z,7.17
2017-09-10T06:13:36.479Z,5.80
2017-09-10T06:16:03.022Z,5.13
2017-09-10T06:18:29.473Z,5.77
2017-09-10T06:20:55.786Z,10.73
2017-09-10T06:23:22.138Z,4.60
2017-09-10T06:25:50.525Z,5.50
2017-09-10T06:28:16.946Z,6.00
2017-09-10T06:30:43.282Z,5.00
2017-09-10T06:39:53.604Z,5.87
2017-09-10T06:42:20.079Z,5.23
2017-09-10T06:44:46.669Z,8.43
2017-09-10T06:47:15.351Z,4.07
2017-09-10T06:49:41.882Z,4.83
2017-09-10T06:52:08.197Z,3.80
2017-09-10T06:54:34.902Z,3.60
2017-09-10T06:57:01.799Z,7.30
2017-09-10T06:59:29.384Z,3.70
2017-09-10T07:05:12.425Z,5.40
2017-09-10T07:07:40.781Z,2.70
2017-09-10T07:10:07.131Z,3.20
2017-09-10T07:12:33.453Z,3.30
2017-09-10T07:15:00.090Z,3.80
2017-09-10T07:17:28.269Z,3.83
2017-09-10T07:19:54.587Z,10.13
2017-09-10T07:22:20.911Z,2.90
2017-09-10T07:24:47.660Z,4.70
2017-09-10T07:27:13.904Z,5.30
2017-09-10T07:29:40.223Z,4.57
2017-09-10T07:32:06.656Z,5.13
2017-09-10T07:34:36.059Z,5.37
2017-09-10T07:37:02.397Z,5.83
2017-09-10T07:39:29.236Z,8.83
2017-09-10T07:41:55.464Z,7.07
2017-09-10T07:44:22.516Z,6.43
2017-09-10T07:46:49.350Z,4.47
2017-09-10T07:49:15.583Z,3.07
2017-09-10T07:51:42.233Z,7.67
2017-09-10T07:54:08.761Z,4.57
2017-09-10T07:56:35.294Z,4.97
2017-09-10T07:59:02.780Z,5.03
2017-09-10T08:01:29.396Z,3.90
2017-09-10T08:03:55.845Z,4.40
2017-09-10T08:06:23.193Z,3.57
2017-09-10T08:08:49.627Z,3.00
2017-09-10T08:11:16.168Z,3.50
2017-09-10T08:13:42.603Z,5.07
2017-09-10T08:16:09.946Z,7.03
2017-09-10T08:18:36.182Z,3.50
2017-09-10T08:21:02.534Z,3.53
2017-09-10T08:23:28.741Z,7.63
2017-09-10T08:25:55.050Z,3.17
2017-09-10T08:28:21.317Z,3.17
2017-09-10T08:30:47.948Z,3.43
2017-09-10T08:33:14.159Z,3.70
2017-09-10T08:35:40.395Z,3.07
2017-09-10T08:38:06.742Z,3.60
2017-09-10T08:40:32.966Z,3.60
2017-09-10T08:42:59.676Z,3.20
2017-09-10T08:45:28.096Z,4.13
2017-09-10T08:47:54.406Z,4.20
2017-09-10T08:50:20.688Z,3.40
2017-09-10T08:52:46.993Z,3.33
2017-09-10T08:55:14.527Z,3.43
2017-09-10T08:57:41.187Z,4.20
2017-09-10T09:00:07.466Z,2.70
2017-09-10T09:02:33.730Z,3.83
2017-09-10T09:05:00.057Z,3.90
2017-09-10T09:07:26.385Z,2.23
2017-09-10T09:09:53.560Z,5.10
2017-09-10T09:12:19.875Z,5.70
2017-09-10T09:14:46.761Z,4.60
2017-09-10T09:17:13.022Z,2.90
2017-09-10T09:19:40.722Z,2.97
2017-09-10T09:22:07.697Z,4.37
2017-09-10T09:24:34.331Z,2.97
2017-09-10T09:27:01.612Z,3.00
2017-09-10T09:29:29.095Z,2.70
2017-09-10T09:31:55.614Z,3.20
2017-09-10T09:34:23.754Z,2.67
2017-09-10T09:36:50.034Z,4.50
2017-09-10T09:39:17.131Z,3.20
2017-09-10T09:41:43.416Z,2.87
2017-09-10T09:44:09.642Z,2.17
2017-09-10T09:46:35.934Z,2.40
2017-09-10T09:49:03.584Z,3.87
2017-09-10T09:51:31.399Z,2.87
2017-09-10T09:53:57.594Z,2.73
2017-09-10T09:56:24.102Z,2.40
2017-09-10T09:58:50.383Z,2.40
2017-09-10T10:01:16.671Z,2.80
2017-09-10T10:03:42.944Z,3.80
2017-09-10T10:06:09.150Z,2.07
2017-09-10T10:08:35.373Z,3.73
2017-09-10T10:11:01.593Z,3.07
2017-09-10T10:13:29.250Z,2.83
2017-09-10T10:15:55.945Z,3.80
2017-09-10T10:18:23.097Z,2.70
2017-09-10T10:20:49.883Z,2.30
2017-09-10T10:23:16.190Z,2.40
2017-09-10T10:25:42.415Z,2.47
2017-09-10T10:28:08.614Z,3.23
2017-09-10T10:30:35.208Z,4.83
2017-09-10T10:33:02.426Z,10.20
2017-09-10T10:35:29.524Z,2.53
2017-09-10T10:37:56.128Z,3.13
2017-09-10T10:40:23.007Z,3.57
2017-09-10T10:42:49.252Z,6.83
2017-09-10T10:45:15.524Z,3.13
2017-09-10T10:47:42.695Z,2.87
2017-09-10T10:50:09.672Z,23.40
2017-09-10T10:52:37.635Z,2.73
2017-09-10T10:55:04.249Z,5.07
2017-09-10T10:57:30.671Z,12.93
2017-09-10T10:59:57.645Z,10.03
2017-09-10T11:02:23.922Z,3.00
2017-09-10T11:04:50.213Z,2.90
2017-09-10T11:07:16.578Z,2.80
2017-09-10T11:09:42.921Z,7.53
2017-09-10T11:12:11.865Z,3.10
2017-09-10T11:14:39.303Z,2.27
2017-09-10T11:17:05.575Z,2.50
2017-09-10T11:19:33.086Z,2.13
2017-09-10T11:21:59.770Z,2.60
2017-09-10T11:24:26.293Z,5.70
2017-09-10T11:26:52.926Z,2.43
2017-09-10T11:29:19.188Z,2.73
2017-09-10T11:31:46.146Z,2.40
2017-09-10T11:34:12.549Z,2.40
2017-09-10T11:36:39.066Z,2.67
2017-09-10T11:39:05.330Z,2.60
2017-09-10T11:41:32.206Z,2.53
2017-09-10T11:43:58.535Z,2.23
2017-09-10T11:46:24.787Z,2.43
2017-09-10T11:48:51.123Z,2.07
2017-09-10T11:51:18.092Z,5.13
2017-09-10T11:53:44.405Z,2.77
2017-09-10T11:56:11.008Z,3.17
2017-09-10T11:58:37.247Z,2.23
2017-09-10T12:01:03.845Z,2.33
2017-09-10T12:03:30.136Z,2.43
2017-09-10T12:05:58.159Z,2.57
2017-09-10T12:08:25.399Z,2.50
2017-09-10T12:10:51.643Z,2.40
2017-09-10T12:13:17.919Z,5.27
2017-09-10T12:15:44.114Z,2.23
2017-09-10T12:18:10.363Z,2.10
2017-09-10T12:20:36.603Z,2.30
2017-09-10T12:23:03.309Z,3.43
2017-09-10T12:25:30.054Z,2.10
2017-09-10T12:27:56.373Z,2.27
2017-09-10T12:30:22.644Z,2.27
2017-09-10T12:32:50.904Z,2.27
2017-09-10T12:35:17.206Z,2.20
2017-09-10T12:37:43.371Z,2.40
2017-09-10T12:40:10.075Z,3.13
2017-09-10T12:42:36.380Z,2.33
2017-09-10T12:45:03.092Z,2.07
2017-09-10T12:47:29.563Z,2.47
2017-09-10T12:49:55.913Z,1.93
2017-09-10T12:52:23.486Z,2.20
2017-09-10T12:54:49.660Z,2.60
2017-09-10T12:57:15.942Z,2.43
2017-09-10T12:59:42.180Z,2.47
2017-09-10T13:02:08.927Z,2.20
2017-09-10T13:04:35.956Z,2.00
2017-09-10T13:07:02.171Z,2.40
2017-09-10T13:09:29.222Z,2.33
2017-09-10T13:11:55.447Z,3.27
2017-09-10T13:14:22.635Z,1.90
2017-09-10T13:16:49.776Z,2.10
2017-09-10T13:19:16.611Z,2.20
2017-09-10T13:21:42.876Z,2.30
2017-09-10T13:24:09.088Z,2.40
2017-09-10T13:26:35.411Z,2.07
2017-09-10T13:29:01.670Z,2.90
2017-09-10T13:31:28.458Z,1.93
2017-09-10T13:33:54.703Z,3.30
2017-09-10T13:36:22.005Z,2.53
2017-09-10T13:38:48.918Z,2.43
2017-09-10T13:41:15.183Z,1.93
2017-09-10T13:43:41.444Z,2.20
2017-09-10T13:46:07.672Z,2.57
2017-09-10T13:48:33.993Z,3.67
2017-09-10T13:51:00.226Z,2.00
2017-09-10T13:53:26.543Z,2.17
2017-09-10T13:55:52.789Z,1.93
2017-09-10T13:58:19.089Z,3.10
2017-09-10T14:00:45.329Z,2.93
2017-09-10T14:03:11.543Z,2.03
2017-09-10T14:05:37.803Z,2.70
2017-09-10T14:08:04.363Z,2.60
2017-09-10T14:10:30.607Z,2.67
2017-09-10T14:12:56.891Z,31.87
2017-09-10T14:15:23.565Z,2.13
2017-09-10T14:17:50.970Z,4.17
2017-09-10T14:20:17.171Z,2.00
2017-09-10T14:22:43.462Z,3.27
2017-09-10T14:25:10.132Z,5.83
2017-09-10T14:27:36.462Z,2.80
2017-09-10T14:30:02.992Z,2.40
2017-09-10T14:32:29.542Z,3.10
2017-09-10T14:34:56.277Z,2.17
2017-09-10T14:40:01.752Z,3.20
2017-09-10T14:42:28.113Z,2.33
2017-09-10T14:44:54.509Z,2.43
2017-09-10T14:47:21.155Z,3.27
2017-09-10T14:49:47.443Z,2.30
2017-09-10T14:52:14.642Z,2.47
2017-09-10T14:54:40.882Z,3.77
2017-09-10T14:57:07.112Z,2.50
2017-09-10T14:59:34.958Z,4.70
2017-09-10T15:02:02.429Z,3.27
2017-09-10T15:04:31.404Z,2.50
2017-09-10T15:06:58.250Z,3.07
2017-09-10T15:09:25.112Z,2.60
2017-09-10T15:11:51.425Z,3.00
2017-09-10T15:14:17.777Z,2.77
2017-09-10T15:16:44.107Z,6.17
2017-09-10T15:19:10.444Z,4.47
2017-09-10T15:21:37.277Z,19.07
2017-09-10T15:24:03.825Z,2.50
2017-09-10T15:26:30.969Z,3.20
2017-09-10T15:28:57.242Z,5.97
2017-09-10T15:31:25.562Z,3.50
2017-09-10T15:33:52.323Z,3.57
2017-09-10T15:36:18.662Z,4.43
2017-09-10T15:38:45.067Z,3.00
2017-09-10T15:41:11.622Z,3.87
2017-09-10T15:43:38.265Z,2.90
2017-09-10T15:46:12.781Z,2.90
2017-09-10T15:51:18.463Z,3.00
2017-09-10T15:53:45.110Z,6.23
2017-09-10T15:56:12.240Z,4.10
2017-09-10T15:58:38.793Z,4.20
2017-09-10T16:01:05.406Z,3.60
2017-09-10T16:03:31.624Z,7.23
2017-09-10T16:05:58.429Z,3.80
2017-09-10T16:08:24.810Z,4.60
2017-09-10T16:10:52.399Z,5.10
2017-09-10T16:13:19.318Z,5.80
2017-09-10T16:15:45.669Z,4.10
2017-09-10T16:18:14.731Z,3.20
2017-09-10T16:20:42.022Z,4.40
2017-09-10T16:23:08.657Z,4.40
2017-09-10T16:25:40.815Z,9.43
2017-09-10T16:28:07.050Z,5.10
2017-09-10T16:30:40.660Z,5.03
2017-09-10T16:33:08.744Z,5.80
2017-09-10T16:38:13.487Z,5.30
2017-09-10T16:40:40.913Z,7.90
2017-09-10T16:43:12.898Z,5.80
2017-09-10T16:45:43.734Z,7.37
2017-09-10T16:53:36.126Z,18.30
2017-09-10T16:56:06.245Z,6.60
2017-09-10T16:58:36.974Z,5.63
2017-09-10T17:09:01.438Z,5.40
2017-09-10T17:14:17.301Z,7.43
2017-09-10T17:16:45.917Z,9.23
2017-09-10T17:19:14.401Z,5.10
2017-09-10T17:21:41.654Z,8.70
2017-09-10T17:24:18.094Z,4.87
2017-09-10T17:26:44.357Z,5.53
2017-09-10T17:29:22.459Z,7.30
2017-09-10T17:31:48.774Z,19.57
2017-09-10T17:34:15.378Z,8.93
2017-09-10T17:36:42.088Z,6.90
2017-09-10T17:39:09.843Z,8.43
2017-09-10T17:41:37.410Z,7.50
2017-09-10T17:44:05.701Z,4.53
2017-09-10T17:46:33.228Z,8.07
2017-09-10T17:48:59.532Z,29.20
2017-09-10T17:51:26.007Z,5.73
2017-09-10T17:53:52.345Z,6.10
2017-09-10T17:56:18.996Z,7.13
2017-09-10T17:58:45.726Z,7.20
2017-09-10T18:01:12.147Z,6.37
2017-09-10T18:03:38.537Z,6.97
2017-09-10T18:06:04.841Z,7.97
2017-09-10T18:08:31.458Z,4.60
2017-09-10T18:10:57.699Z,4.20
2017-09-10T18:13:24.899Z,5.17
2017-09-10T18:15:51.673Z,5.43
2017-09-10T18:18:17.828Z,5.63
2017-09-10T18:20:44.245Z,5.13
2017-09-10T18:23:10.680Z,13.47
2017-09-10T18:25:37.958Z,11.03
2017-09-10T18:28:04.260Z,4.77
2017-09-10T18:30:31.104Z,15.27
2017-09-10T18:32:59.243Z,8.27
2017-09-10T18:35:25.714Z,15.23
2017-09-10T18:37:52.555Z,18.20
2017-09-10T18:40:18.896Z,10.57
2017-09-10T18:42:54.242Z,6.50
2017-09-10T18:45:20.586Z,5.20
2017-09-10T18:47:51.322Z,4.43
2017-09-10T18:50:23.491Z,5.60
2017-09-10T18:53:01.034Z,6.22
2017-09-10T18:55:28.512Z,8.32
2017-09-10T18:57:54.956Z,12.52
2017-09-10T19:00:21.806Z,22.98
2017-09-10T19:02:51.924Z,8.20
2017-09-10T19:05:19.916Z,9.98
2017-09-10T19:07:47.379Z,6.00
2017-09-10T19:10:14.396Z,7.30
2017-09-10T19:12:41.353Z,5.75
2017-09-10T19:15:08.400Z,8.27
2017-09-10T19:17:38.841Z,6.97
2017-09-10T19:20:06.190Z,9.88
2017-09-10T19:22:32.950Z,6.00
2017-09-10T19:24:59.991Z,6.68
2017-09-10T19:27:28.469Z,13.62
2017-09-10T19:29:55.311Z,5.45
2017-09-10T19:32:22.345Z,9.00
2017-09-10T19:34:48.681Z,11.73
2017-09-10T19:37:15.529Z,7.37
2017-09-10T19:39:42.169Z,5.85
2017-09-10T19:42:08.932Z,10.55
2017-09-10T19:44:35.554Z,10.93
2017-09-10T19:47:03.231Z,11.80
2017-09-10T19:49:29.590Z,10.18
2017-09-10T19:51:57.932Z,10.60
2017-09-10T19:54:36.439Z,11.70
2017-09-10T19:59:41.369Z,21.80
2017-09-10T20:02:07.604Z,12.43
2017-09-10T20:07:12.599Z,12.57
2017-09-10T20:09:44.461Z,7.45
2017-09-10T20:14:52.664Z,14.18
2017-09-10T20:17:20.734Z,11.00
2017-09-10T20:19:47.163Z,7.82
2017-09-10T20:22:15.757Z,8.02
2017-09-10T20:24:44.551Z,8.13
2017-09-10T20:27:10.744Z,10.60
2017-09-10T20:29:42.538Z,12.73
2017-09-10T20:32:09.184Z,9.82
2017-09-10T20:34:35.503Z,14.52
2017-09-10T20:37:06.037Z,19.60
2017-09-10T20:39:41.902Z,11.35
2017-09-10T20:42:10.876Z,16.52
2017-09-10T20:44:41.537Z,10.40
2017-09-10T20:47:07.919Z,11.07
2017-09-10T20:49:38.495Z,10.52
2017-09-10T20:57:25.464Z,10.77
2017-09-10T20:59:52.900Z,8.20
2017-09-10T21:02:19.943Z,6.97
2017-09-10T21:18:01.718Z,7.62
2017-09-10T21:20:39.049Z,8.80
2017-09-10T21:23:07.509Z,10.95
2017-09-10T21:25:34.570Z,6.80
2017-09-10T21:28:02.324Z,9.40
2017-09-10T21:30:28.644Z,8.63
2017-09-10T21:32:58.574Z,9.52
2017-09-10T21:35:26.871Z,10.75
2017-09-10T21:38:04.234Z,7.32
2017-09-10T21:40:33.044Z,13.65
2017-09-10T21:43:03.150Z,7.93
2017-09-10T21:45:31.829Z,7.68
2017-09-10T21:48:00.206Z,7.32
2017-09-10T21:50:29.313Z,8.65
2017-09-10T21:52:56.676Z,7.90
2017-09-10T21:55:34.964Z,8.73
2017-09-10T21:58:03.776Z,7.82
2017-09-10T22:00:30.813Z,7.47
2017-09-10T22:02:58.397Z,9.45
2017-09-10T22:08:03.536Z,7.53
2017-09-10T22:13:09.337Z,6.80
2017-09-10T22:15:39.455Z,7.47
2017-09-10T22:18:06.172Z,7.68
2017-09-10T22:20:38.045Z,9.30
2017-09-10T22:23:04.278Z,8.95
2017-09-10T22:25:31.000Z,8.00
2017-09-10T22:27:57.655Z,9.73
2017-09-10T22:30:24.789Z,9.35
2017-09-10T22:32:51.849Z,7.62
2017-09-10T22:37:59.774Z,9.60
2017-09-10T22:40:27.948Z,10.38
2017-09-10T22:42:55.201Z,8.18
2017-09-10T22:45:23.275Z,7.70
2017-09-10T22:47:52.055Z,11.18
2017-09-10T22:53:04.189Z,9.30
2017-09-10T22:55:31.639Z,9.38
2017-09-10T23:00:49.079Z,11.10
2017-09-10T23:16:39.872Z,14.63
2017-09-10T23:19:09.691Z,7.68
2017-09-10T23:21:49.042Z,8.43
2017-09-10T23:24:16.483Z,11.93
2017-09-10T23:26:45.282Z,8.60
2017-09-10T23:32:01.032Z,13.48
